createdAt,value
2023-11-10T05:01:55.943Z,99621.72
2023-11-10T05:12:24.357Z,99625.41
2023-11-10T05:22:51.984Z,99626.09
2023-11-10T05:33:20.422Z,99655.06
2023-11-10T05:43:42.912Z,99676.63
2023-11-10T05:54:06.559Z,99702.47
2023-11-10T06:04:38.652Z,99752.81
2023-11-10T06:15:07.302Z,99841.66
2023-11-10T06:25:35.948Z,99992.63
2023-11-10T06:36:05.052Z,100081.19
2023-11-10T06:46:28.965Z,100067.94
2023-11-10T06:56:59.356Z,100056.22
2023-11-10T07:07:27.517Z,100054.00
2023-11-10T07:17:52.947Z,100057.84
2023-11-10T07:28:20.646Z,100052.34
2023-11-10T07:38:48.739Z,100037.31
2023-11-10T07:49:17.012Z,100033.63
2023-11-10T07:59:40.976Z,100028.63
2023-11-10T08:10:09.705Z,100025.59
2023-11-10T08:20:35.073Z,100031.03
2023-11-10T08:31:03.120Z,100026.78
2023-11-10T08:41:30.498Z,100023.19
2023-11-10T08:52:00.516Z,100014.09
2023-11-10T09:02:29.184Z,100003.50
2023-11-10T09:12:34.484Z,99983.75
2023-11-10T09:22:56.944Z,99986.03
2023-11-10T09:33:18.252Z,99979.44
2023-11-10T09:43:39.953Z,99967.19
2023-11-10T09:54:03.215Z,99954.84
2023-11-10T10:04:24.315Z,99940.75
2023-11-10T10:14:56.831Z,99924.41
2023-11-10T10:25:24.953Z,99914.47
2023-11-10T10:35:53.146Z,99889.00
2023-11-10T10:46:21.663Z,99888.88
2023-11-10T10:56:50.534Z,99875.13
2023-11-10T11:07:24.009Z,99883.88
2023-11-10T11:18:23.047Z,99891.34
2023-11-10T11:29:15.468Z,99886.97
2023-11-10T11:39:52.087Z,99879.25
2023-11-10T11:50:20.565Z,99864.16
2023-11-10T12:00:49.572Z,99853.22
2023-11-10T12:11:17.626Z,99846.66
2023-11-10T12:21:53.551Z,99834.13
2023-11-10T12:32:22.191Z,99818.16
2023-11-10T12:42:51.191Z,99811.56
2023-11-10T12:53:20.473Z,99811.25
2023-11-10T13:03:49.796Z,99798.66
2023-11-10T13:14:17.634Z,99799.13
2023-11-10T13:24:47.456Z,99790.47
2023-11-10T13:35:17.084Z,99797.88
2023-11-10T13:45:44.741Z,99784.75
2023-11-10T13:56:12.900Z,99774.91
2023-11-10T14:06:40.973Z,99783.38
2023-11-10T14:17:05.502Z,99770.59
2023-11-10T14:27:27.108Z,99769.88
2023-11-10T14:37:59.792Z,99771.44
2023-11-10T14:48:29.277Z,99762.00
2023-11-10T14:58:58.229Z,99743.41
2023-11-10T15:09:26.074Z,99728.66
2023-11-10T15:19:48.621Z,99740.38
2023-11-10T15:30:16.429Z,99719.94
2023-11-10T15:40:46.988Z,99716.91
2023-11-10T15:51:14.868Z,99722.94
2023-11-10T16:01:37.145Z,99713.88
2023-11-10T16:12:05.709Z,99713.47
2023-11-10T16:22:27.476Z,99714.59
2023-11-10T16:32:49.453Z,99728.22
2023-11-10T16:43:10.704Z,99731.22
2023-11-10T16:53:32.309Z,99722.50
2023-11-10T17:03:53.535Z,99714.88
2023-11-10T17:14:21.801Z,99700.81
2023-11-10T17:24:44.357Z,99684.56
2023-11-10T17:35:07.257Z,99667.16
2023-11-10T17:45:36.255Z,99669.84
2023-11-10T17:56:04.953Z,99670.59
2023-11-10T18:06:28.003Z,99663.75
2023-11-10T18:16:55.773Z,99672.03
2023-11-10T18:27:25.182Z,99666.69
2023-11-10T18:37:53.471Z,99671.97
2023-11-10T18:48:22.629Z,99673.84
2023-11-10T18:58:53.486Z,99669.69
2023-11-10T19:09:22.056Z,99662.88
2023-11-10T19:19:49.910Z,99660.59
2023-11-10T19:30:18.131Z,99662.88
2023-11-10T19:40:46.189Z,99638.66
2023-11-10T20:01:38.416Z,99632.63
2023-11-10T20:12:11.400Z,99633.34
2023-11-10T20:22:39.123Z,99615.16
2023-11-10T20:33:06.965Z,99613.31
2023-11-10T20:43:35.517Z,99606.03
2023-11-10T20:54:03.451Z,99599.22
2023-11-10T21:04:30.937Z,99597.72
2023-11-10T21:14:58.950Z,99585.59
2023-11-10T21:25:21.230Z,99572.41
2023-11-10T21:35:44.320Z,99570.94
2023-11-10T21:46:05.855Z,99563.72
2023-11-10T21:56:28.396Z,99561.91
